Sat, 24 Jul 2021 23:36:19 UTC

Information for RPM texlive-dvipng-7:20200327-15.fc33.ppc64le.rpm

ID22835137
Nametexlive-dvipng
Version20200327
Release15.fc33
Epoch7
Archppc64le
SummaryA fast DVI to PNG/GIF converter
DescriptionThis program makes PNG and/or GIF graphics from DVI files as obtained from TeX and its relatives. Its benefits include: Speed. It offers very fast rendering of DVI as bitmap files, which makes it suitable for generating large amounts of images on-the-fly, as needed in preview-latex, WeBWorK and others; It does not read the postamble, so it can be started before TeX finishes. There is a --follow switch that makes dvipng wait at end-of-file for further output, unless it finds the POST marker that indicates the end of the DVI; Interactive query of options. dvipng can read options interactively through stdin, and all options are usable. It is even possible to change the input file through this interface. Support for PK, VF, PostScript Type1, and TrueType fonts, colour specials, and inclusion of PostScript, PNG, JPEG or GIF images.
Build Time2020-08-13 18:20:30 GMT
Size338,623
a5d12acc30f15420bd38be6d17173bd2
LicenseLGPLv2+
Buildrootf33-build-22183122-1883803
Provides
dvipng = 7:20200327-15.fc33
tex-dvipng = 7:20200327-15.fc33
tex-dvipng-bin = 7:20200327-15.fc33
tex-dvipng-doc = 7:20200327-15.fc33
texlive-dvipng = 7:20200327-15.fc33
texlive-dvipng(ppc-64) = 7:20200327-15.fc33
texlive-dvipng-bin = 7:20200327-15.fc33
texlive-dvipng-doc = 7:20200327-15.fc33
Obsoletes
texlive-dvipng-bin < 7:20170520
texlive-dvipng-doc < 7:20170520
Conflicts No Conflicts
Requires
libc.so.6()(64bit)
libc.so.6(GLIBC_2.17)(64bit)
libfreetype.so.6()(64bit)
libgd.so.3()(64bit)
libkpathsea.so.6()(64bit)
libm.so.6()(64bit)
libm.so.6(GLIBC_2.29)(64bit)
rpmlib(CompressedFileNames) <= 3.0.4-1
rpmlib(FileDigests) <= 4.6.0-1
rpmlib(PayloadFilesHavePrefix) <= 4.0-1
rpmlib(PayloadIsZstd) <= 5.4.18-1
rtld(GNU_HASH)
texlive-base
texlive-kpathsea
Recommends No Recommends
Suggests No Suggests
Supplements No Supplements
Enhances No Enhances
Files
1 through 13 of 13
Name ascending sort Size
/usr/bin/dvigif6
/usr/bin/dvipng204,800
/usr/lib/.build-id0
/usr/lib/.build-id/0c0
/usr/lib/.build-id/0c/8f2208f37c42f9f3df689f8eda002af18a38f626
/usr/share/info/dvipng.info.gz15,760
/usr/share/licenses/texlive-dvipng0
/usr/share/licenses/texlive-dvipng/lgpl2.1.txt39
/usr/share/man/man1/dvigif.1.gz38
/usr/share/man/man1/dvipng.1.gz8,142
/usr/share/texlive/texmf-dist/doc/dvipng0
/usr/share/texlive/texmf-dist/doc/dvipng/dvipng.html87,078
/usr/share/texlive/texmf-dist/doc/dvipng/dvipng.pdf220,376
Component of
Page:
1 through 50 of 130 >>>
Buildroot descending sort Created State
f33-build-23016418-2151206 2020-09-25 23:29:33 expired
f33-build-23015447-2150271 2020-09-25 21:10:53 expired
f33-build-23014889-2149713 2020-09-25 19:48:20 expired
f33-build-22964820-2134817 2020-09-23 07:18:12 expired
f33-build-22960394-2134006 2020-09-23 03:36:53 expired
f33-build-22959007-2134006 2020-09-23 02:28:33 expired
f33-build-22958527-2134006 2020-09-23 01:58:50 expired
f33-build-22958498-2134006 2020-09-23 01:58:03 expired
f33-build-22957080-2134006 2020-09-23 00:45:22 expired
f33-build-22957058-2134006 2020-09-23 00:44:43 expired
f33-build-22952866-2132844 2020-09-22 20:34:33 expired
f33-build-22950205-2131851 2020-09-22 16:49:17 expired
f33-build-22948928-2131456 2020-09-22 14:49:23 expired
f33-build-22943338-2130225 2020-09-22 09:41:21 expired
f33-build-22922963-2122227 2020-09-21 03:47:43 expired
f33-build-22902638-2120282 2020-09-20 10:38:17 expired
f33-build-22870041-2114047 2020-09-19 06:05:12 expired
f33-build-22869947-2114047 2020-09-19 05:59:28 expired
f33-build-22865674-2113271 2020-09-19 01:59:16 expired
f33-build-22845759-2105978 2020-09-18 05:16:12 expired
f33-build-22812035-2091943 2020-09-16 04:37:27 expired
f33-build-22810653-2091943 2020-09-16 03:46:46 expired
f33-build-22797051-2086676 2020-09-15 11:47:01 expired
f33-build-22794396-2086077 2020-09-15 08:49:38 expired
f33-build-22794393-2086077 2020-09-15 08:49:37 expired
f33-build-22794347-2086077 2020-09-15 08:48:18 expired
f33-build-22793985-2085340 2020-09-15 08:18:11 expired
f33-build-22791008-2085045 2020-09-15 03:52:09 expired
f33-build-22788969-2084512 2020-09-15 01:25:01 expired
f33-build-22785920-2083312 2020-09-14 20:30:00 expired
f33-build-22785033-2082050 2020-09-14 18:15:05 expired
f33-build-22784193-2082050 2020-09-14 16:31:36 expired
f33-build-22784187-2082050 2020-09-14 16:31:35 expired
f33-build-22780953-2079378 2020-09-14 08:29:17 expired
f33-build-22780940-2079378 2020-09-14 08:28:58 expired
f33-build-22749193-2074226 2020-09-13 08:11:44 expired
f33-build-22742639-2074226 2020-09-13 02:45:36 expired
f33-build-22731542-2071998 2020-09-12 17:56:57 expired
f33-build-22729836-2071998 2020-09-12 15:36:07 expired
f33-build-22727726-2071642 2020-09-12 13:38:12 expired
f33-build-22708826-2062744 2020-09-11 12:05:34 expired
f33-build-22708580-2062744 2020-09-11 11:42:21 expired
f33-build-22707108-2061950 2020-09-11 09:58:25 expired
f33-build-22704268-2059752 2020-09-11 03:50:32 expired
f33-build-22704061-2059128 2020-09-11 02:47:13 expired
f33-build-22703701-2059128 2020-09-11 01:12:24 expired
f33-build-22682796-2051507 2020-09-10 01:23:44 expired
f33-build-22675545-2049036 2020-09-09 15:32:39 expired
f33-build-22656469-2044466 2020-09-08 15:55:43 expired
f33-build-22632369-2035394 2020-09-07 05:45:23 expired